createdAt,value
2022-11-02T00:00:00.864Z,101244.83
2022-11-02T00:02:49.109Z,101245.68
2022-11-02T00:05:23.795Z,101245.63
2022-11-02T00:07:55.792Z,101244.70
2022-11-02T00:10:24.869Z,101244.24
2022-11-02T00:12:53.466Z,101247.61
2022-11-02T00:15:22.725Z,101248.41
2022-11-02T00:18:00.177Z,101252.60
2022-11-02T00:20:29.632Z,101253.39
2022-11-02T00:23:01.454Z,101255.16
2022-11-02T00:25:30.504Z,101258.97
2022-11-02T00:27:58.585Z,101257.19
2022-11-02T00:30:26.546Z,101261.20
2022-11-02T00:32:55.569Z,101265.31
2022-11-02T00:35:23.711Z,101262.85
2022-11-02T00:37:51.795Z,101259.91
2022-11-02T00:40:19.989Z,101259.39
2022-11-02T00:42:48.061Z,101261.92
2022-11-02T00:45:16.041Z,101262.70
2022-11-02T00:47:44.182Z,101258.67
2022-11-02T00:50:12.215Z,101262.14
2022-11-02T00:52:42.693Z,101259.84
2022-11-02T00:55:11.999Z,101264.92
2022-11-02T00:57:42.572Z,101270.63
2022-11-02T01:00:12.301Z,101273.13
2022-11-02T01:02:43.729Z,101272.00
2022-11-02T01:05:12.367Z,101271.29
2022-11-02T01:07:41.641Z,101268.08
2022-11-02T01:10:10.709Z,101269.53
2022-11-02T01:12:40.431Z,101271.41
2022-11-02T01:15:10.564Z,101272.70
2022-11-02T01:17:39.437Z,101276.20
2022-11-02T01:20:08.369Z,101276.84
2022-11-02T01:22:36.756Z,101278.70
2022-11-02T01:25:05.194Z,101276.67
2022-11-02T01:27:33.149Z,101277.29
2022-11-02T01:30:01.124Z,101279.34
2022-11-02T01:32:30.945Z,101281.11
2022-11-02T01:34:59.806Z,101280.14
2022-11-02T01:37:27.946Z,101280.02
2022-11-02T01:39:55.994Z,101282.73
2022-11-02T01:42:26.083Z,101279.23
2022-11-02T01:44:54.346Z,101278.81
2022-11-02T01:47:30.080Z,101268.56
2022-11-02T01:50:05.213Z,101272.41
2022-11-02T01:52:36.490Z,101270.84
2022-11-02T01:55:16.691Z,101272.23
2022-11-02T01:57:52.574Z,101274.42
2022-11-02T02:00:21.661Z,101272.87
2022-11-02T02:03:01.438Z,101273.06
2022-11-02T02:05:30.795Z,101271.52
2022-11-02T02:07:59.011Z,101271.36
2022-11-02T02:10:27.029Z,101273.83
2022-11-02T02:12:55.600Z,101274.83
2022-11-02T02:15:28.217Z,101276.27
2022-11-02T02:18:05.603Z,101272.09
2022-11-02T02:20:50.894Z,101272.82
2022-11-02T02:23:56.330Z,101274.81
2022-11-02T02:26:46.118Z,101276.46
2022-11-02T02:29:24.620Z,101279.48
2022-11-02T02:32:02.171Z,101277.79
2022-11-02T02:34:46.368Z,101280.14
2022-11-02T02:37:19.886Z,101282.11
2022-11-02T02:40:08.943Z,101280.02
2022-11-02T02:42:51.921Z,101279.34
2022-11-02T02:45:38.741Z,101277.95
2022-11-02T02:48:13.369Z,101277.14
2022-11-02T02:50:47.869Z,101272.22
2022-11-02T02:53:22.800Z,101273.48
2022-11-02T02:55:52.268Z,101272.79
2022-11-02T02:58:47.597Z,101274.33
2022-11-02T03:01:17.394Z,101276.16
2022-11-02T03:03:47.406Z,101275.54
2022-11-02T03:06:25.067Z,101275.41
2022-11-02T03:09:14.147Z,101276.45
2022-11-02T03:12:02.196Z,101279.84
2022-11-02T03:14:41.936Z,101286.30
2022-11-02T03:17:21.015Z,101291.79
2022-11-02T03:20:07.346Z,101289.31
2022-11-02T03:22:58.490Z,101293.81
2022-11-02T03:26:00.062Z,101289.48
2022-11-02T03:29:10.887Z,101296.88
2022-11-02T03:31:45.880Z,101294.63
2022-11-02T03:34:29.534Z,101297.55
2022-11-02T03:37:03.183Z,101296.92
2022-11-02T03:39:53.220Z,101293.80
2022-11-02T03:42:27.388Z,101296.43
2022-11-02T03:45:06.321Z,101294.79
2022-11-02T03:47:37.383Z,101294.67
2022-11-02T03:50:09.605Z,101294.89
2022-11-02T03:52:42.132Z,101300.39
2022-11-02T03:55:33.947Z,101300.46
2022-11-02T03:58:02.207Z,101302.80
2022-11-02T04:00:36.593Z,101305.90
2022-11-02T04:03:07.659Z,101307.90
2022-11-02T04:05:39.775Z,101315.13
2022-11-02T04:08:22.970Z,101315.30
2022-11-02T04:11:12.453Z,101315.84
2022-11-02T04:14:02.743Z,101322.64
2022-11-02T04:16:37.732Z,101321.17
2022-11-02T04:19:27.755Z,101321.52
2022-11-02T04:22:18.041Z,101328.57
2022-11-02T04:25:06.925Z,101328.34
2022-11-02T04:27:38.120Z,101323.91
2022-11-02T04:30:07.225Z,101322.53
2022-11-02T04:32:59.019Z,101324.16
2022-11-02T04:35:29.740Z,101320.96
2022-11-02T04:38:17.012Z,101315.37
2022-11-02T04:40:46.167Z,101315.05
2022-11-02T04:43:15.821Z,101313.46
2022-11-02T04:45:44.609Z,101317.21
2022-11-02T04:48:13.416Z,101317.12
2022-11-02T04:50:41.557Z,101318.64
2022-11-02T04:53:10.089Z,101315.54
2022-11-02T04:55:39.639Z,101313.78
2022-11-02T04:58:08.436Z,101307.36
2022-11-02T05:00:37.101Z,101307.63
2022-11-02T05:03:09.688Z,101305.45
2022-11-02T05:05:41.518Z,101308.92
2022-11-02T05:08:10.278Z,101311.45
2022-11-02T05:10:39.263Z,101319.80
2022-11-02T05:13:08.055Z,101325.34
2022-11-02T05:15:39.846Z,101321.08
2022-11-02T05:18:09.206Z,101324.16
2022-11-02T05:20:42.283Z,101331.13
2022-11-02T05:23:10.665Z,101330.58
2022-11-02T05:25:39.424Z,101334.10
2022-11-02T05:28:07.588Z,101337.42
2022-11-02T05:30:36.952Z,101338.94
2022-11-02T05:33:05.824Z,101336.33
2022-11-02T05:35:34.970Z,101334.20
2022-11-02T05:38:04.229Z,101333.06
2022-11-02T05:40:34.051Z,101329.55
2022-11-02T05:43:04.269Z,101326.23
2022-11-02T05:45:36.900Z,101328.52
2022-11-02T05:48:09.128Z,101331.30
2022-11-02T05:50:37.769Z,101328.36
2022-11-02T05:53:06.445Z,101331.17
2022-11-02T05:55:35.654Z,101333.27
2022-11-02T05:58:04.640Z,101327.06
2022-11-02T06:00:33.797Z,101329.50
2022-11-02T06:03:03.395Z,101330.71
2022-11-02T06:05:32.376Z,101334.16
2022-11-02T06:08:02.501Z,101335.42
2022-11-02T06:10:33.122Z,101335.56
2022-11-02T06:13:04.655Z,101337.69
2022-11-02T06:15:34.871Z,101343.23
2022-11-02T06:18:04.252Z,101346.39
2022-11-02T06:20:32.477Z,101351.14
2022-11-02T06:23:00.926Z,101350.30
2022-11-02T06:25:29.846Z,101351.31
2022-11-02T06:27:58.817Z,101348.95
2022-11-02T06:30:28.051Z,101349.09
2022-11-02T06:32:56.347Z,101351.44
2022-11-02T06:35:24.546Z,101355.83
2022-11-02T06:37:52.906Z,101354.55
2022-11-02T06:40:24.178Z,101350.70
2022-11-02T06:45:46.975Z,101355.80
2022-11-02T06:48:15.615Z,101358.27
2022-11-02T06:50:43.869Z,101361.98
2022-11-02T06:53:12.189Z,101366.90
2022-11-02T06:55:40.479Z,101371.22
2022-11-02T06:58:08.916Z,101366.23
2022-11-02T07:00:37.377Z,101365.98
2022-11-02T07:03:10.160Z,101365.55
2022-11-02T07:05:40.426Z,101370.52
2022-11-02T07:08:08.850Z,101374.46
2022-11-02T07:10:39.275Z,101369.73
2022-11-02T07:13:08.179Z,101372.17
2022-11-02T07:15:36.587Z,101370.48
2022-11-02T07:18:06.640Z,101366.59
2022-11-02T07:20:35.853Z,101371.08
2022-11-02T07:23:07.353Z,101371.29
2022-11-02T07:25:36.294Z,101370.67
2022-11-02T07:28:05.017Z,101369.10
2022-11-02T07:30:34.897Z,101366.15
2022-11-02T07:33:04.157Z,101359.25
2022-11-02T07:35:34.526Z,101365.66
2022-11-02T07:38:05.670Z,101367.33
2022-11-02T07:40:36.540Z,101365.17
2022-11-02T07:43:06.310Z,101369.27
2022-11-02T07:49:04.441Z,101366.02
2022-11-02T07:51:32.638Z,101372.48
2022-11-02T07:54:01.673Z,101369.46
2022-11-02T07:56:29.915Z,101363.65
2022-11-02T07:58:59.116Z,101366.68
2022-11-02T08:01:27.409Z,101365.44
2022-11-02T08:03:56.946Z,101366.33
2022-11-02T08:06:27.021Z,101367.29
2022-11-02T08:08:55.220Z,101369.02
2022-11-02T08:11:43.540Z,101360.21
2022-11-02T08:14:11.649Z,101357.79
2022-11-02T08:16:39.961Z,101361.19
2022-11-02T08:19:09.536Z,101365.20
2022-11-02T08:21:38.036Z,101364.85
2022-11-02T08:24:06.898Z,101366.39
2022-11-02T08:26:36.938Z,101365.81
2022-11-02T08:29:06.304Z,101362.94
2022-11-02T08:31:34.933Z,101361.77
2022-11-02T08:34:03.413Z,101358.90
2022-11-02T08:36:31.566Z,101360.36
2022-11-02T08:39:00.026Z,101353.33
2022-11-02T08:41:28.558Z,101349.38
2022-11-02T08:43:57.814Z,101349.05
2022-11-02T08:46:26.553Z,101348.13
2022-11-02T08:48:55.634Z,101346.71
2022-11-02T08:51:27.794Z,101340.77
2022-11-02T08:54:00.768Z,101343.21
2022-11-02T08:56:31.388Z,101340.23
2022-11-02T08:59:03.926Z,101344.84
2022-11-02T09:01:36.160Z,101341.30
2022-11-02T09:04:06.826Z,101344.77
2022-11-02T09:06:38.482Z,101345.41
2022-11-02T09:09:11.550Z,101344.79
2022-11-02T09:11:45.356Z,101353.68
2022-11-02T09:14:16.021Z,101343.98
2022-11-02T09:16:49.200Z,101348.64
2022-11-02T09:19:19.334Z,101344.70
2022-11-02T09:21:52.125Z,101347.13
2022-11-02T09:24:23.211Z,101344.63
2022-11-02T09:26:56.314Z,101338.79
2022-11-02T09:29:36.526Z,101345.33
2022-11-02T09:32:11.376Z,101343.17
2022-11-02T09:34:41.867Z,101339.98
2022-11-02T09:37:11.053Z,101337.33
2022-11-02T09:39:40.268Z,101335.52
2022-11-02T09:42:40.227Z,101333.39
2022-11-02T09:45:15.353Z,101327.88
2022-11-02T09:48:16.106Z,101324.83
2022-11-02T09:50:54.358Z,101320.65
2022-11-02T09:53:40.219Z,101327.88
2022-11-02T09:56:11.215Z,101321.96
2022-11-02T09:58:41.284Z,101318.77
2022-11-02T10:01:19.013Z,101314.69
2022-11-02T10:04:03.193Z,101322.04
2022-11-02T10:06:36.299Z,101318.64
2022-11-02T10:09:04.610Z,101318.91
2022-11-02T10:12:01.398Z,101312.08
2022-11-02T10:14:34.953Z,101313.06
2022-11-02T10:17:18.193Z,101315.48
2022-11-02T10:19:53.646Z,101319.33
2022-11-02T10:22:27.683Z,101317.75
2022-11-02T10:24:58.464Z,101322.48
2022-11-02T10:27:30.786Z,101323.70
2022-11-02T10:30:16.353Z,101326.38
2022-11-02T10:32:46.359Z,101323.94
2022-11-02T10:36:19.956Z,101320.99
2022-11-02T10:38:55.269Z,101318.23
2022-11-02T10:41:42.382Z,101320.00
2022-11-02T10:44:24.227Z,101322.36
2022-11-02T10:47:04.989Z,101321.95
2022-11-02T10:49:51.679Z,101318.89
2022-11-02T10:52:20.208Z,101316.84
2022-11-02T10:54:53.693Z,101307.80
2022-11-02T10:57:25.494Z,101310.02
2022-11-02T11:00:42.627Z,101306.33
2022-11-02T11:03:18.036Z,101307.30
2022-11-02T11:05:49.573Z,101303.27
2022-11-02T11:08:30.540Z,101301.55
2022-11-02T11:11:23.310Z,101305.54
2022-11-02T11:19:51.919Z,101301.90
2022-11-02T11:22:27.028Z,101307.47
2022-11-02T11:25:27.182Z,101307.92
2022-11-02T11:27:59.217Z,101305.91
2022-11-02T11:30:59.053Z,101307.04
2022-11-02T11:33:31.248Z,101296.39
2022-11-02T11:36:02.146Z,101298.34
2022-11-02T11:38:30.912Z,101295.09
2022-11-02T11:41:00.883Z,101291.21
2022-11-02T11:43:38.823Z,101291.35
2022-11-02T11:46:10.719Z,101285.99
2022-11-02T11:48:52.221Z,101278.31
2022-11-02T11:51:26.832Z,101275.96
2022-11-02T11:54:31.306Z,101279.95
2022-11-02T11:57:20.622Z,101278.34
2022-11-02T11:59:53.196Z,101281.90
2022-11-02T12:02:32.429Z,101282.02
2022-11-02T12:05:12.679Z,101286.43
2022-11-02T12:08:04.821Z,101287.09
2022-11-02T12:10:59.393Z,101288.60
2022-11-02T12:13:46.578Z,101283.05
2022-11-02T12:16:18.004Z,101276.05
2022-11-02T12:19:07.111Z,101278.39
2022-11-02T12:21:59.026Z,101278.24
2022-11-02T12:25:00.716Z,101278.45
2022-11-02T12:27:42.059Z,101282.33
2022-11-02T12:30:45.143Z,101281.63
2022-11-02T12:33:53.183Z,101283.09
2022-11-02T12:37:03.516Z,101277.52
2022-11-02T12:39:36.168Z,101277.73
2022-11-02T12:42:31.918Z,101279.28
2022-11-02T12:45:50.122Z,101279.20
2022-11-02T12:48:25.990Z,101279.08
2022-11-02T12:51:05.068Z,101281.48
2022-11-02T12:53:59.823Z,101277.27
2022-11-02T12:56:46.774Z,101267.23
2022-11-02T12:59:19.299Z,101267.71
2022-11-02T13:01:53.006Z,101269.23
2022-11-02T13:04:54.303Z,101271.15
2022-11-02T13:07:33.179Z,101279.46
2022-11-02T13:10:15.192Z,101288.42
2022-11-02T13:12:50.328Z,101288.52
2022-11-02T13:15:24.629Z,101290.08
2022-11-02T13:17:57.828Z,101292.55
2022-11-02T13:20:34.054Z,101288.89
2022-11-02T13:23:07.925Z,101291.29
2022-11-02T13:26:12.949Z,101291.41
2022-11-02T13:28:48.319Z,101292.91
2022-11-02T13:31:33.081Z,101290.79
2022-11-02T13:34:06.488Z,101292.91
2022-11-02T13:36:38.396Z,101294.43
2022-11-02T13:39:17.730Z,101300.27
2022-11-02T13:42:06.711Z,101301.41
2022-11-02T13:45:15.743Z,101301.02
2022-11-02T13:47:52.187Z,101303.39
2022-11-02T13:50:25.407Z,101302.09
2022-11-02T13:53:03.752Z,101302.58
2022-11-02T13:55:51.568Z,101301.30
2022-11-02T13:58:26.670Z,101300.19
2022-11-02T14:01:01.828Z,101304.62
2022-11-02T14:03:44.706Z,101303.59
2022-11-02T14:06:16.732Z,101303.88
2022-11-02T14:09:00.772Z,101312.70
2022-11-02T14:11:42.680Z,101310.08
2022-11-02T14:14:11.366Z,101312.52
2022-11-02T14:16:47.574Z,101315.89
2022-11-02T14:19:19.589Z,101317.29
2022-11-02T14:21:52.675Z,101319.81
2022-11-02T14:24:36.372Z,101320.71
2022-11-02T14:27:07.682Z,101319.26
2022-11-02T14:29:42.416Z,101319.64
2022-11-02T14:32:20.603Z,101321.89
2022-11-02T14:35:16.554Z,101323.71
2022-11-02T14:38:00.317Z,101323.33
2022-11-02T14:40:50.925Z,101326.64
2022-11-02T14:43:41.989Z,101322.58
2022-11-02T14:46:30.985Z,101322.37
2022-11-02T14:49:02.879Z,101316.84
2022-11-02T14:51:37.101Z,101314.17
2022-11-02T14:54:17.611Z,101320.75
2022-11-02T14:57:08.516Z,101321.89
2022-11-02T14:59:40.431Z,101322.84
2022-11-02T15:02:18.332Z,101324.12
2022-11-02T15:04:53.547Z,101332.30
2022-11-02T15:07:28.551Z,101332.00
2022-11-02T15:09:59.278Z,101330.90
2022-11-02T15:12:29.876Z,101331.53
2022-11-02T15:15:37.685Z,101337.09
2022-11-02T15:18:28.424Z,101338.40
2022-11-02T15:21:12.704Z,101342.96
2022-11-02T15:23:48.357Z,101344.64
2022-11-02T15:26:24.189Z,101348.38
2022-11-02T15:28:58.102Z,101353.30
2022-11-02T15:31:31.263Z,101355.92
2022-11-02T15:34:10.490Z,101357.08
2022-11-02T15:36:44.793Z,101362.20
2022-11-02T15:39:13.866Z,101365.23
2022-11-02T15:41:52.096Z,101366.36
2022-11-02T15:44:30.067Z,101369.34
2022-11-02T15:47:40.176Z,101371.46
2022-11-02T15:50:49.124Z,101367.23
2022-11-02T15:53:37.787Z,101370.15
2022-11-02T15:56:09.864Z,101373.80
2022-11-02T15:59:14.373Z,101371.20
2022-11-02T16:01:45.795Z,101376.08
2022-11-02T16:04:21.019Z,101381.79
2022-11-02T16:06:54.426Z,101382.34
2022-11-02T16:09:34.772Z,101383.23
2022-11-02T16:12:14.112Z,101390.48
2022-11-02T16:15:22.467Z,101394.83
2022-11-02T16:17:51.077Z,101396.78
2022-11-02T16:20:30.039Z,101394.95
2022-11-02T16:23:02.480Z,101401.22
2022-11-02T16:25:39.638Z,101406.83
2022-11-02T16:28:32.035Z,101410.73
2022-11-02T16:31:18.431Z,101408.96
2022-11-02T16:33:56.863Z,101406.35
2022-11-02T16:36:37.854Z,101408.17
2022-11-02T16:39:22.087Z,101411.55
2022-11-02T16:41:53.092Z,101416.18
2022-11-02T16:44:26.119Z,101422.96
2022-11-02T16:47:01.718Z,101428.27
2022-11-02T16:49:30.244Z,101434.86
2022-11-02T16:52:18.064Z,101439.05
2022-11-02T16:54:47.135Z,101444.43
2022-11-02T16:57:34.980Z,101449.92
2022-11-02T17:00:19.491Z,101455.95
2022-11-02T17:02:48.443Z,101459.65
2022-11-02T17:05:21.602Z,101463.98
2022-11-02T17:08:10.010Z,101467.46
2022-11-02T17:10:39.519Z,101466.02
2022-11-02T17:13:21.663Z,101468.23
2022-11-02T17:15:52.491Z,101473.86
2022-11-02T17:18:21.296Z,101477.84
2022-11-02T17:21:12.953Z,101471.56
2022-11-02T17:23:44.345Z,101477.92
2022-11-02T17:26:23.007Z,101477.74
2022-11-02T17:28:59.871Z,101480.02
2022-11-02T17:31:30.962Z,101475.91
2022-11-02T17:34:08.222Z,101478.06
2022-11-02T17:36:43.632Z,101480.76
2022-11-02T17:39:20.505Z,101481.74
2022-11-02T17:42:15.361Z,101482.69
2022-11-02T17:44:45.841Z,101487.59
2022-11-02T17:47:19.853Z,101483.55
2022-11-02T17:49:48.809Z,101488.52
2022-11-02T17:52:17.568Z,101484.49
2022-11-02T17:54:47.131Z,101486.06
2022-11-02T17:57:16.278Z,101485.27
2022-11-02T17:59:45.405Z,101486.73
2022-11-02T18:02:16.351Z,101481.39
2022-11-02T18:04:45.072Z,101482.77
2022-11-02T18:07:13.953Z,101481.14
2022-11-02T18:09:42.628Z,101483.17
2022-11-02T18:12:19.897Z,101482.05
2022-11-02T18:15:02.303Z,101481.29
2022-11-02T18:17:35.073Z,101481.75
2022-11-02T18:20:06.060Z,101481.75
2022-11-02T18:22:40.632Z,101475.99
2022-11-02T18:25:12.950Z,101475.52
2022-11-02T18:27:42.121Z,101482.00
2022-11-02T18:30:14.170Z,101485.36
2022-11-02T18:32:47.932Z,101487.57
2022-11-02T18:35:19.395Z,101485.14
2022-11-02T18:37:48.353Z,101484.30
2022-11-02T18:40:18.971Z,101487.93
2022-11-02T18:42:47.852Z,101487.09
2022-11-02T18:45:17.217Z,101486.85
2022-11-02T18:47:46.382Z,101491.08
2022-11-02T18:50:15.228Z,101488.36
2022-11-02T18:52:49.237Z,101485.80
2022-11-02T18:55:18.634Z,101489.25
2022-11-02T18:57:51.133Z,101490.77
2022-11-02T19:00:22.215Z,101494.40
2022-11-02T19:02:53.072Z,101497.95
2022-11-02T19:05:40.571Z,101502.41
2022-11-02T19:08:37.274Z,101501.03
2022-11-02T19:11:06.297Z,101503.83
2022-11-02T19:13:34.714Z,101507.05
2022-11-02T19:16:05.250Z,101507.91
2022-11-02T19:18:37.205Z,101512.93
2022-11-02T19:21:06.914Z,101511.76
2022-11-02T19:23:35.454Z,101515.53
2022-11-02T19:26:04.431Z,101515.64
2022-11-02T19:28:33.535Z,101519.41
2022-11-02T19:31:06.661Z,101517.44
2022-11-02T19:33:35.494Z,101523.20
2022-11-02T19:36:04.453Z,101525.14
2022-11-02T19:38:41.074Z,101528.73
2022-11-02T19:41:13.943Z,101532.98
2022-11-02T19:43:43.688Z,101539.34
2022-11-02T19:46:17.257Z,101538.05
2022-11-02T19:48:46.170Z,101538.65
2022-11-02T19:51:20.235Z,101538.59
2022-11-02T19:53:52.390Z,101542.25
2022-11-02T19:56:22.187Z,101541.00
2022-11-02T19:58:52.197Z,101543.88
2022-11-02T20:01:25.182Z,101545.27
2022-11-02T20:03:54.562Z,101547.23
2022-11-02T20:06:28.901Z,101555.02
2022-11-02T20:08:58.676Z,101560.29
2022-11-02T20:11:28.459Z,101562.60
2022-11-02T20:14:01.398Z,101559.02
2022-11-02T20:16:30.750Z,101562.05
2022-11-02T20:18:59.954Z,101564.30
2022-11-02T20:21:36.871Z,101563.02
2022-11-02T20:24:13.059Z,101568.30
2022-11-02T20:26:42.702Z,101566.63
2022-11-02T20:29:13.820Z,101571.44
2022-11-02T20:31:45.664Z,101572.16
2022-11-02T20:34:14.072Z,101571.81
2022-11-02T20:36:43.292Z,101570.96
2022-11-02T20:39:13.824Z,101573.60
2022-11-02T20:41:42.235Z,101577.05
2022-11-02T20:44:11.289Z,101577.61
2022-11-02T20:46:41.950Z,101582.16
2022-11-02T20:49:21.907Z,101584.54
2022-11-02T20:51:51.878Z,101586.42
2022-11-02T20:54:21.803Z,101585.30
2022-11-02T20:56:51.520Z,101586.80
2022-11-02T20:59:19.838Z,101585.20
2022-11-02T21:01:48.237Z,101589.63
2022-11-02T21:04:20.667Z,101591.66
2022-11-02T21:06:50.687Z,101591.13
2022-11-02T21:09:20.117Z,101592.98
2022-11-02T21:12:07.105Z,101595.55
2022-11-02T21:14:35.489Z,101599.66
2022-11-02T21:17:06.092Z,101600.39
2022-11-02T21:19:34.373Z,101606.66
2022-11-02T21:22:02.309Z,101609.77
2022-11-02T21:24:30.520Z,101610.29
2022-11-02T21:26:58.950Z,101606.00
2022-11-02T21:29:27.865Z,101611.13
2022-11-02T21:31:55.999Z,101611.47
2022-11-02T21:34:24.376Z,101612.31
2022-11-02T21:36:53.041Z,101611.45
2022-11-02T21:39:21.603Z,101609.69
2022-11-02T21:41:50.118Z,101608.91
2022-11-02T21:44:18.581Z,101605.10
2022-11-02T21:46:47.334Z,101606.18
2022-11-02T21:49:16.052Z,101604.35
2022-11-02T21:51:44.838Z,101603.36
2022-11-02T21:54:13.321Z,101605.58
2022-11-02T21:56:41.610Z,101606.96
2022-11-02T21:59:10.232Z,101610.39
2022-11-02T22:01:44.879Z,101612.02
2022-11-02T22:04:32.195Z,101612.95
2022-11-02T22:07:02.022Z,101608.70
2022-11-02T22:09:31.458Z,101609.08
2022-11-02T22:12:18.763Z,101611.45
2022-11-02T22:14:46.864Z,101618.69
2022-11-02T22:17:35.457Z,101615.17
2022-11-02T22:20:04.783Z,101619.27
2022-11-02T22:22:32.955Z,101619.82
2022-11-02T22:25:01.378Z,101621.90
2022-11-02T22:27:29.465Z,101625.20
2022-11-02T22:29:57.765Z,101627.08
2022-11-02T22:32:26.224Z,101626.65
2022-11-02T22:34:54.535Z,101628.67
2022-11-02T22:37:41.445Z,101625.58
2022-11-02T22:40:10.233Z,101628.17
2022-11-02T22:42:41.555Z,101630.39
2022-11-02T22:45:10.918Z,101630.73
2022-11-02T22:47:39.886Z,101635.56
2022-11-02T22:50:08.350Z,101636.92
2022-11-02T22:52:36.780Z,101638.63
2022-11-02T22:55:05.278Z,101642.04
2022-11-02T22:57:33.368Z,101644.41
2022-11-02T23:00:01.681Z,101645.62
2022-11-02T23:02:29.754Z,101647.91
2022-11-02T23:04:57.733Z,101650.10
2022-11-02T23:07:25.861Z,101655.52
2022-11-02T23:09:56.804Z,101656.11
2022-11-02T23:12:24.903Z,101658.75
2022-11-02T23:14:53.343Z,101667.55
2022-11-02T23:17:21.561Z,101663.33
2022-11-02T23:19:49.726Z,101667.20
2022-11-02T23:22:32.857Z,101667.06
2022-11-02T23:25:13.078Z,101668.03
2022-11-02T23:28:02.809Z,101670.09
2022-11-02T23:30:52.367Z,101666.55
2022-11-02T23:33:22.581Z,101667.59
2022-11-02T23:36:19.963Z,101667.39
2022-11-02T23:39:08.987Z,101669.89
2022-11-02T23:41:38.989Z,101666.98
2022-11-02T23:44:14.487Z,101668.49
2022-11-02T23:46:47.512Z,101666.70
2022-11-02T23:49:18.090Z,101672.13
2022-11-02T23:52:05.000Z,101671.98
2022-11-02T23:54:51.729Z,101673.05
2022-11-02T23:57:21.182Z,101670.30
2022-11-02T23:59:50.152Z,101670.59
